Tiempo atmosférico en la estación meteorológica de Alfaro, La Rioja (285 m.)



Fecha
DESCASC
Temp. máxima en grados centígrados (hora)
DESCASC
Temp. mínima en grados centígrados (hora)
DESCASC
Temp. media en grados centígrados
DESCASC
Racha de viento máxima en m/sg (hora)
DESCASC
Velocidad máxima media en intervalos de 10 minutos(hora)
DESCASC
Precipitaciones diarias en mm
DESCASC
Precipitaciones de 00:00 a 06:00 en mm
DESCASC
Precipitaciones de 06:00 a 12:00 en mm
DESCASC
Precipitaciones de 12:00 a 18:00 en mm
DESCASC
Precipitaciones de 18:00 a 24:00 en mm
DESCASC
13-10-2019 28.7 (16:30) 17.3 (07:40) 23 13.61 (01:00) 8.89 (23:30) 0 0 0 0 0
12-10-2019 27.7 (17:00) 17.8 (06:50) 22.8 13.33 (13:00) 9.17 (14:10) 0 0 0 0 0
11-10-2019 26.8 (16:30) 8.3 (06:00) 17.5 10.28 (11:10) 6.67 (11:20) 0 0 0 0 0
10-10-2019 23.3 (17:50) 7.7 (00:00) 15.5 5.28 (05:10) 3.33 (08:00) 0 0 0 0 0
09-10-2019 21.8 (14:40) 12.8 (00:00) 17.3 10 (13:30) 5.83 (13:10) 0 0 0 0 0
08-10-2019 28.7 (16:50) 8.1 (00:00) 18.4 6.11 (14:50) 3.89 (22:10) 0 0 0 0 0
07-10-2019 26.4 (16:50) 11 (00:00) 18.7 12.5 (15:30) 7.22 (15:40) 0 0 0 0 0
06-10-2019 23.1 (16:30) 12.2 (00:00) 17.7 10.83 (18:30) 6.94 (17:10) 0 0 0 0 0
05-10-2019 26.7 (16:40) 14.1 (00:00) 20.4 8.06 (11:50) 4.72 (11:50) 0 0 0 0 0
04-10-2019 26.5 (17:00) 8.6 (00:00) 17.6 8.33 (19:00) 5 (19:00) 0 0 0 0 0
03-10-2019 26.3 (16:30) 10.5 (00:00) 18.4 10 (14:30) 6.11 (14:30) 0 0 0 0 0
02-10-2019 22.6 (16:50) 11.6 (00:00) 17.1 13.33 (12:40) 8.33 (17:10) 0 0 0 0 0
01-10-2019 27.3 (14:10) 10.2 (00:00) 18.7 9.72 (18:00) 5.28 (18:00) 0 0 0 0 0
30-09-2019 29.7 (17:10) 11.5 (00:00) 20.6 6.11 (00:30) 3.89 (03:10) 0 0 0 0 0
29-09-2019 29.4 (17:30) 9.9 (00:00) 19.6 6.11 (23:20) 3.89 (23:20) 0 0 0 0 0
28-09-2019 27.7 (17:20) 12 (00:00) 19.9 8.61 (00:10) 3.89 (00:10) 0 0 0 0 0
27-09-2019 28.6 (16:30) 9.6 (00:00) 19.1 8.06 (12:10) 4.17 (12:00) 0 0 0 0 0
26-09-2019 28.9 (16:10) 9.2 (00:00) 19 7.22 (14:50) 3.89 (15:10) 0 0 0 0 0
25-09-2019 23.7 (16:00) 11.9 (00:00) 17.8 8.06 (14:10) 4.17 (12:10) 0 0 0 0 0
24-09-2019 27.5 (15:40) 8.3 (00:00) 17.9 5.56 (21:50) 4.17 (21:20) 0 0 0 0 0
23-09-2019 24.2 (17:10) 8.3 (00:00) 16.3 5 (14:20) 3.06 (18:30) 0 0 0 0 0
22-09-2019 24.4 (17:00) 15.3 (00:00) 19.8 9.44 (08:30) 6.11 (04:00) 0 0 0 0 0
21-09-2019 26.4 (17:20) 17.1 (00:00) 21.8 10 (10:30) 7.22 (11:00) 1.4 1.4 0 0 0
20-09-2019 28.2 (15:20) 12.9 (00:00) 20.6 19.17 (20:40) 13.33 (20:40) 1.8 0 0 0 1.8
19-09-2019 27.4 (16:30) 13.7 (00:00) 20.5 6.39 (11:40) 3.61 (11:40) 0 0 0 0 0
18-09-2019 28.1 (16:30) 17.1 (00:00) 22.6 13.33 (01:30) 9.17 (01:30) 0.8 0 0 0.8 0
17-09-2019 30.7 (17:10) 16.1 (00:00) 23.4 5 (23:10) 3.33 (22:50) 0 0 0 0 0
16-09-2019 28.6 (17:30) 16.4 (00:00) 22.5 6.11 (16:10) 3.61 (18:30) 0 0 0 0 0

Gráficas

Temp. máximas Temp. mínimas Temp. medias Precipitaciones Rachas de viento máximas Velocidades máximas media en intervalos de 10 minutos

Datos horarios

Fecha y hora oficial Temperatura (ºC) Velocidad del viento (km/h) Dirección del viento Racha (km/h) Dirección de racha Precipitación (mm) Presión (hPa) Tendencia (hPa) Humedad (%)
2019-10-15 23:00:00 9.9 9 Sur 12 Sur 0 -- -- 73
2019-10-15 22:00:00 9.7 5 Sudoeste 9 Sudoeste 0 -- -- 76
2019-10-15 21:00:00 11.5 7 Sudoeste 10 Sudoeste 0 -- -- 73
2019-10-15 20:00:00 14.5 4 Norte 15 Norte 0 -- -- 52
2019-10-15 19:00:00 17.6 4 Norte 12 Noroeste 0 -- -- 43
2019-10-15 18:00:00 19.4 5 Sudoeste 11 Sudoeste 0 -- -- 37
2019-10-15 17:00:00 19.1 5 Norte 11 Noroeste 0 -- -- 38
2019-10-15 16:00:00 20.1 8 Noroeste 17 Norte 0 -- -- 35
2019-10-15 15:00:00 18.6 6 Nordeste 15 Este 0 -- -- 41
2019-10-15 14:00:00 17.6 7 Norte 18 Norte 0 -- -- 46
2019-10-15 13:00:00 15.9 9 Nordeste 24 Noroeste 0 -- -- 52
2019-10-15 12:00:00 14 10 Norte 17 Nordeste 0 -- -- 58
2019-10-15 11:00:00 12.9 10 Noroeste 18 Noroeste 0 -- -- 63
2019-10-15 10:00:00 10.3 8 Norte 14 Norte 0 -- -- 75
2019-10-15 09:00:00 6.2 3 Oeste 8 Sudoeste 0 -- -- 92
2019-10-15 08:00:00 6.1 3 Sur 9 Sur 0 -- -- 88
2019-10-15 07:00:00 7.5 7 Noroeste 12 Noroeste 0 -- -- 85
2019-10-15 06:00:00 8.8 5 Oeste 15 Noroeste 0 -- -- 81
2019-10-15 05:00:00 9.8 7 Norte 11 Noroeste 0 -- -- 82
2019-10-15 04:00:00 10.6 3 Nordeste 11 Oeste 0 -- -- 93
2019-10-15 03:00:00 10.7 4 Norte 11 Noroeste 0 -- -- 93
2019-10-15 02:00:00 11.5 4 Nordeste 12 Sudeste 0.2 -- -- 91
2019-10-15 01:00:00 12.1 3 Sudeste 6 Sur 0 -- -- 84
2019-10-15 00:00:00 12.7 0 Calma 17 Nordeste 0 -- -- 77
2019-10-14 23:00:00 14.1 9 Nordeste 23 Sudoeste 0 -- -- 69
2019-10-14 22:00:00 15.3 19 Sudoeste 48 Sudoeste 0 -- -- 54
2019-10-14 21:00:00 15.8 9 Sudoeste 33 Noroeste 0 -- -- 57
2019-10-14 20:00:00 16.2 21 Noroeste 62 Noroeste 0 -- -- 65
2019-10-14 19:00:00 22 16 Sudoeste 23 Sudoeste 0 -- -- 44
2019-10-14 18:00:00 25.1 9 Sudoeste 27 Sudoeste 0 -- -- 41
2019-10-14 17:00:00 25 20 Sudoeste 31 Oeste 0 -- -- 42
2019-10-14 16:00:00 23.1 12 Sur 40 Sudeste 0 -- -- 55
2019-10-14 15:00:00 25.6 26 Sudeste 51 Sur 0 -- -- 41
2019-10-14 14:00:00 24.3 30 Sur 47 Sudoeste 0 -- -- 54
2019-10-14 13:00:00 21.4 24 Sudeste 51 Sudeste 0 -- -- 72
2019-10-14 12:00:00 19.6 34 Sudeste 50 Sudeste 0 -- -- 79
2019-10-14 11:00:00 18.7 28 Sudeste 49 Sudeste 0 -- -- 83
2019-10-14 10:00:00 17.8 17 Sudeste 37 Sudeste 0 -- -- 87
2019-10-14 09:00:00 17.2 12 Sudeste 36 Sudeste 0 -- -- 88
2019-10-14 08:00:00 17 18 Sudeste 33 Sudeste 0 -- -- 88
2019-10-14 07:00:00 17.3 19 Sudeste 30 Sudeste 0 -- -- 88
2019-10-14 06:00:00 17.4 13 Sur 30 Sudeste 0 -- -- 88
2019-10-14 05:00:00 16.8 12 Sudeste 31 Sudeste 0 -- -- 89
2019-10-14 04:00:00 16.9 6 Sudeste 20 Sudeste 0 -- -- 87
2019-10-14 03:00:00 17.8 12 Sudeste 26 Sudeste 0 -- -- 85
2019-10-14 02:00:00 18.7 19 Sudeste 35 Sudeste 0 -- -- 82
2019-10-14 01:00:00 19.3 18 Sudeste 36 Sudeste 0 -- -- 79
2019-10-14 00:00:00 20.1 26 Sudeste 46 Sudeste 0 -- -- 76
2019-10-13 23:00:00 21.5 27 Sudeste 46 Sudeste 0 -- -- 70
2019-10-13 22:00:00 22.3 15 Sudeste 30 Sudeste 0 -- -- 63
2019-10-13 21:00:00 22.2 9 Sur 23 Sudeste 0 -- -- 63
2019-10-13 20:00:00 23.8 13 Sudeste 30 Sudeste 0 -- -- 54
2019-10-13 19:00:00 26.4 17 Sur 33 Sudoeste 0 -- -- 41
2019-10-13 18:00:00 27.9 20 Sur 37 Sur 0 -- -- 27
2019-10-13 17:00:00 28.6 19 Sur 40 Sudeste 0 -- -- 31
2019-10-13 16:00:00 28.6 26 Sudeste 42 Sudeste 0 -- -- 43
2019-10-13 15:00:00 27.1 30 Sudeste 42 Sudeste 0 -- -- 48
2019-10-13 14:00:00 25.7 27 Sudeste 40 Sudeste 0 -- -- 55
2019-10-13 13:00:00 24.3 31 Sudeste 45 Sudeste 0 -- -- 59
2019-10-13 12:00:00 23 30 Sudeste 41 Sudeste 0 -- -- 67
2019-10-13 11:00:00 20.8 23 Sudeste 37 Sur 0 -- -- 76
2019-10-13 10:00:00 19 16 Sudeste 31 Sudeste 0 -- -- 83
2019-10-13 09:00:00 17.6 14 Sudeste 28 Sur 0 -- -- 89
2019-10-13 08:00:00 17.3 18 Sur 34 Sudeste 0 -- -- 90
2019-10-13 07:00:00 17.4 18 Sur 40 Sudeste 0 -- -- 88
2019-10-13 06:00:00 17.6 24 Sudeste 41 Sudeste 0 -- -- 86
2019-10-13 05:00:00 18.1 22 Sudeste 37 Sudeste 0 -- -- 83
2019-10-13 04:00:00 18.7 22 Sudeste 35 Sudeste 0 -- -- 80
2019-10-13 03:00:00 19.1 22 Sudeste 43 Sudeste 0 -- -- 78
2019-10-13 02:00:00 19.5 24 Sudeste 48 Sudeste 0 -- -- 77
2019-10-13 01:00:00 20.3 31 Sudeste 49 Sudeste 0 -- -- 75
2019-10-13 00:00:00 21.1 21 Sudeste 37 Sudeste 0 -- -- 71
2019-10-12 23:00:00 21.8 26 Sudeste 40 Sudeste 0 -- -- 68
2019-10-12 22:00:00 22.2 20 Sudeste 30 Sudeste 0 -- -- 65
2019-10-12 21:00:00 22.1 9 Sudeste 17 Sudeste 0 -- -- 63
2019-10-12 20:00:00 23.9 10 Sudeste 36 Sudeste 0 -- -- 55
2019-10-12 19:00:00 26.1 22 Sudeste 41 Sudeste 0 -- -- 45
2019-10-12 18:00:00 26.7 26 Sudeste 44 Sudeste 0 -- -- 44
2019-10-12 17:00:00 27.7 26 Sudeste 42 Sudeste 0 -- -- 44
2019-10-12 16:00:00 26.4 23 Sudeste 43 Sudeste 0 -- -- 49
2019-10-12 15:00:00 27.2 29 Sudeste 46 Sudeste 0 -- -- 49
2019-10-12 14:00:00 25.8 31 Sudeste 45 Sudeste 0 -- -- 52
2019-10-12 13:00:00 24.8 29 Sudeste 48 Sudeste 0 -- -- 60
2019-10-12 12:00:00 23.3 26 Sudeste 42 Sudeste 0 -- -- 68
2019-10-12 11:00:00 19.7 19 Sudeste 30 Sudeste 0 -- -- 81
2019-10-12 10:00:00 18.4 11 Sudeste 24 Sudeste 0 -- -- 87
2019-10-12 09:00:00 17.8 12 Sudeste 25 Sudeste 0 -- -- 88
2019-10-12 08:00:00 17.9 16 Sudeste 27 Sudeste 0 -- -- 88
2019-10-12 07:00:00 17.8 9 Sudeste 17 Sudeste 0 -- -- 88
2019-10-12 06:00:00 18.2 10 Sudeste 26 Sudeste 0 -- -- 87
2019-10-12 05:00:00 18.4 9 Sur 29 Sudeste 0 -- -- 86
2019-10-12 04:00:00 18.7 6 Sur 20 Sudeste 0 -- -- 85
2019-10-12 03:00:00 19.1 10 Sudeste 30 Sudeste 0 -- -- 83
2019-10-12 02:00:00 19.8 14 Sudeste 32 Sudeste 0 -- -- 80
2019-10-12 01:00:00 20.1 12 Sudeste 24 Sudeste 0 -- -- 78
2019-10-12 00:00:00 18.8 10 Sur 19 Sudeste 0 -- -- 81
2019-10-11 23:00:00 18.3 3 Noroeste 14 Sudeste 0 -- -- 75
2019-10-11 22:00:00 19.8 8 Sudeste 16 Sudeste 0 -- -- 70
2019-10-11 21:00:00 20.8 7 Sudeste 14 Sudeste 0 -- -- 65
2019-10-11 20:00:00 22.4 8 Sudeste 20 Sudeste 0 -- -- 59
2019-10-11 19:00:00 24.3 9 Sudeste 22 Sur 0 -- -- 54
2019-10-11 18:00:00 26.2 17 Sudeste 27 Sudeste 0 -- -- 49
2019-10-11 17:00:00 26.8 14 Sudeste 28 Sudeste 0 -- -- 47
2019-10-11 16:00:00 26 15 Sudeste 24 Sudeste 0 -- -- 50
2019-10-11 15:00:00 25.2 14 Sudeste 27 Sudeste 0 -- -- 52
2019-10-11 14:00:00 23.2 21 Sudeste 32 Este 0 -- -- 61
2019-10-11 13:00:00 22.1 18 Sudeste 34 Sudeste 0 -- -- 63
2019-10-11 12:00:00 19.8 23 Sudeste 37 Sudeste 0 -- -- 72
2019-10-11 11:00:00 17.9 20 Sudeste 31 Sur 0 -- -- 80
2019-10-11 10:00:00 15 12 Sudeste 21 Sudeste 0 -- -- 89
2019-10-11 09:00:00 11.8 3 Nordeste 6 Nordeste 0 -- -- 88
2019-10-11 08:00:00 10.8 2 Nordeste 5 Sudeste 0 -- -- 90
2019-10-11 07:00:00 9.9 6 Sur 9 Sur 0 -- -- 89
2019-10-11 06:00:00 8.3 0 Calma 7 Sudeste 0 -- -- 90
2019-10-11 05:00:00 8.9 4 Sudeste 9 Sudeste 0 -- -- 87
2019-10-11 04:00:00 8.8 6 Sudeste 8 Sudeste 0 -- -- 89
2019-10-11 03:00:00 8.9 2 Sudeste 4 Sudoeste 0 -- -- 88
2019-10-11 02:00:00 10 3 Sudoeste 7 Sudeste 0 -- -- 84
2019-10-11 01:00:00 10.4 2 Sur 7 Sur 0 -- -- 84
2019-10-11 00:00:00 10.6 5 Este 7 Este 0 -- -- 82
2019-10-10 23:00:00 11.6 4 Sudeste 10 Sur 0 -- -- 77
2019-10-10 22:00:00 12.9 6 Sur 9 Sudoeste 0 -- -- 70
2019-10-10 21:00:00 14.9 4 Sudoeste 9 Sudoeste 0 -- -- 69
2019-10-10 20:00:00 18.7 3 Sudoeste 6 Sur 0 -- -- 60
2019-10-10 19:00:00 23 2 Sudoeste 5 Sudeste 0 -- -- 43
2019-10-10 18:00:00 22.9 3 Nordeste 10 Este 0 -- -- 38
2019-10-10 17:00:00 23 0 Calma 18 Nordeste 0 -- -- 37
2019-10-10 16:00:00 22.4 5 Sudeste 18 Oeste 0 -- -- 39
2019-10-10 15:00:00 21.7 6 Nordeste 15 Norte 0 -- -- 39
2019-10-10 14:00:00 21.3 9 Noroeste 17 Noroeste 0 -- -- 41
2019-10-10 13:00:00 19.6 9 Noroeste 18 Norte 0 -- -- 46
2019-10-10 12:00:00 18.6 9 Noroeste 17 Noroeste 0 -- -- 51
2019-10-10 11:00:00 15.2 8 Noroeste 13 Noroeste 0 -- -- 63
2019-10-10 10:00:00 12.2 7 Noroeste 15 Noroeste 0 -- -- 77
2019-10-10 09:00:00 9.1 9 Noroeste 18 Noroeste 0 -- -- 88
2019-10-10 08:00:00 8.2 12 Noroeste 17 Noroeste 0 -- -- 90
2019-10-10 07:00:00 7.9 7 Oeste 12 Norte 0 -- -- 88
2019-10-10 06:00:00 9 9 Noroeste 19 Norte 0 -- -- 85
2019-10-10 05:00:00 8.6 7 Norte 18 Norte 0 -- -- 89
2019-10-10 04:00:00 7.7 3 Norte 6 Norte 0 -- -- 88
2019-10-10 03:00:00 8.6 0 Calma 6 Oeste 0 -- -- 84
2019-10-10 02:00:00 10.4 8 Oeste 14 Oeste 0 -- -- 76
2019-10-10 01:00:00 11.5 10 Oeste 12 Oeste 0 -- -- 73
2019-10-10 00:00:00 12.8 7 Noroeste 14 Noroeste 0 -- -- 70
2019-10-09 23:00:00 14.5 7 Noroeste 23 Noroeste 0 -- -- 63
2019-10-09 22:00:00 15.4 10 Noroeste 22 Noroeste 0 -- -- 62
2019-10-09 21:00:00 16.2 12 Norte 31 Norte 0 -- -- 59
2019-10-09 20:00:00 17 16 Norte 30 Norte 0 -- -- 54
2019-10-09 19:00:00 18.2 16 Norte 35 Nordeste 0 -- -- 51
2019-10-09 18:00:00 19.4 15 Norte 33 Norte 0 -- -- 51
2019-10-09 17:00:00 21.2 19 Norte 30 Norte 0 -- -- 44
2019-10-09 16:00:00 21 16 Norte 33 Noroeste 0 -- -- 48
2019-10-09 15:00:00 21.6 18 Noroeste 34 Noroeste 0 -- -- 48
2019-10-09 14:00:00 20.3 16 Noroeste 36 Noroeste 0 -- -- 54
2019-10-09 13:00:00 20.1 17 Noroeste 31 Noroeste 0 -- -- 58
2019-10-09 12:00:00 20.1 15 Noroeste 29 Noroeste 0 -- -- 62
2019-10-09 11:00:00 18.1 14 Noroeste 30 Noroeste 0 -- -- 71
2019-10-09 10:00:00 17 11 Noroeste 20 Noroeste 0 -- -- 77
2019-10-09 09:00:00 15.8 9 Noroeste 18 Noroeste 0 -- -- 81
2019-10-09 08:00:00 14.7 12 Noroeste 19 Noroeste 0 -- -- 85
2019-10-09 07:00:00 14.2 10 Noroeste 23 Noroeste 0 -- -- 86
2019-10-09 06:00:00 13.8 11 Noroeste 18 Noroeste 0 -- -- 90
2019-10-09 05:00:00 14.5 7 Oeste 12 Noroeste 0 -- -- 85
2019-10-09 04:00:00 15.5 7 Noroeste 17 Noroeste 0 -- -- 83
2019-10-09 03:00:00 16.7 11 Noroeste 23 Noroeste 0 -- -- 80
2019-10-09 02:00:00 17 10 Noroeste 19 Noroeste 0 -- -- 81
2019-10-09 01:00:00 17.6 11 Noroeste 19 Noroeste 0 -- -- 79
2019-10-09 00:00:00 18.2 12 Noroeste 20 Noroeste 0 -- -- 75
2019-10-08 23:00:00 18.9 9 Noroeste 21 Noroeste 0 -- -- 69
2019-10-08 22:00:00 20 13 Noroeste 21 Noroeste 0 -- -- 60
2019-10-08 21:00:00 20 9 Noroeste 14 Noroeste 0 -- -- 50
2019-10-08 20:00:00 22.1 3 Noroeste 4 Norte 0 -- -- 46
2019-10-08 19:00:00 26.3 3 Nordeste 6 Norte 0 -- -- 31
2019-10-08 18:00:00 27.9 3 Norte 12 Este 0 -- -- 23
2019-10-08 17:00:00 28.4 5 Nordeste 16 Este 0 -- -- 22
2019-10-08 16:00:00 27.9 10 Este 19 Sudeste 0 -- -- 23
2019-10-08 15:00:00 27.7 11 Sudeste 22 Sudeste 0 -- -- 21
2019-10-08 14:00:00 25.4 9 Sudeste 15 Sudeste 0 -- -- 24
2019-10-08 13:00:00 23 3 Este 13 Este 0 -- -- 31
2019-10-08 12:00:00 21.6 3 Sudeste 8 Este 0 -- -- 36
2019-10-08 11:00:00 18.3 2 Sudeste 6 Sudoeste 0 -- -- 45
2019-10-08 10:00:00 14.5 0 Calma 4 Oeste 0 -- -- 60
2019-10-08 09:00:00 9.1 3 Sudoeste 9 Sudeste 0 -- -- 83
2019-10-08 08:00:00 8.4 4 Oeste 6 Sur 0 -- -- 81
2019-10-08 07:00:00 9.2 3 Noroeste 6 Sudoeste 0 -- -- 74
2019-10-08 06:00:00 10.9 2 Sudeste 11 Norte 0 -- -- 68
2019-10-08 05:00:00 11.4 5 Este 13 Norte 0 -- -- 65
2019-10-08 04:00:00 11.5 3 Noroeste 9 Sudeste 0 -- -- 60
2019-10-08 03:00:00 13 8 Noroeste 15 Noroeste 0 -- -- 51
2019-10-08 02:00:00 11.9 7 Oeste 10 Sudoeste 0 -- -- 60
2019-10-08 01:00:00 12.9 3 Sudoeste 12 Norte 0 -- -- 60
2019-10-08 00:00:00 14.4 7 Noroeste 18 Sudoeste 0 -- -- 49
2019-10-07 23:00:00 15.5 3 Sudoeste 13 Noroeste 0 -- -- 52
2019-10-07 22:00:00 16.7 9 Norte 13 Norte 0 -- -- 46
2019-10-07 21:00:00 18.1 6 Noroeste 19 Norte 0 -- -- 41
2019-10-07 20:00:00 20.2 11 Norte 24 Norte 0 -- -- 36
2019-10-07 19:00:00 22.4 13 Norte 30 Norte 0 -- -- 34
2019-10-07 18:00:00 25.3 16 Norte 32 Noroeste 0 -- -- 32
2019-10-07 17:00:00 26.4 19 Noroeste 37 Noroeste 0 -- -- 25
2019-10-07 16:00:00 25.3 22 Noroeste 45 Noroeste 0 -- -- 27
2019-10-07 15:00:00 24.3 22 Noroeste 39 Noroeste 0 -- -- 29
2019-10-07 14:00:00 23.2 24 Norte 39 Noroeste 0 -- -- 27
2019-10-07 13:00:00 22 24 Noroeste 37 Noroeste 0 -- -- 34
2019-10-07 12:00:00 19.4 22 Norte 33 Norte 0 -- -- 51
2019-10-07 11:00:00 17.1 18 Noroeste 27 Noroeste 0 -- -- 63
2019-10-07 10:00:00 15.3 13 Noroeste 21 Noroeste 0 -- -- 72
2019-10-07 09:00:00 12.3 11 Noroeste 21 Norte 0 -- -- 84
2019-10-07 08:00:00 11.2 10 Noroeste 16 Noroeste 0 -- -- 86
2019-10-07 07:00:00 11.5 5 Noroeste 18 Oeste 0 -- -- 83
2019-10-07 06:00:00 11.9 9 Noroeste 16 Noroeste 0 -- -- 82
2019-10-07 05:00:00 12.5 11 Noroeste 19 Noroeste 0 -- -- 80
2019-10-07 04:00:00 12.3 8 Noroeste 16 Noroeste 0 -- -- 79
2019-10-07 03:00:00 13.6 7 Oeste 16 Oeste 0 -- -- 75
2019-10-07 02:00:00 14.7 9 Noroeste 24 Noroeste 0 -- -- 72
2019-10-07 01:00:00 15.3 14 Noroeste 24 Noroeste 0 -- -- 69
2019-10-07 00:00:00 16.4 12 Noroeste 25 Noroeste 0 -- -- 65
2019-10-06 23:00:00 16.7 10 Noroeste 18 Noroeste 0 -- -- 69
2019-10-06 22:00:00 15.9 7 Norte 23 Norte 0 -- -- 76
2019-10-06 21:00:00 16.3 12 Norte 20 Noroeste 0 -- -- 73
2019-10-06 20:00:00 17.4 13 Norte 33 Norte 0 -- -- 69
2019-10-06 19:00:00 20.1 21 Norte 39 Norte 0 -- -- 57
2019-10-06 18:00:00 20.3 19 Norte 37 Norte 0 -- -- 61
2019-10-06 17:00:00 22.9 21 Norte 35 Norte 0 -- -- 49
2019-10-06 16:00:00 22.9 15 Noroeste 34 Noroeste 0 -- -- 51
2019-10-06 15:00:00 21.8 18 Noroeste 36 Norte 0 -- -- 56
2019-10-06 14:00:00 22.1 19 Norte 31 Norte 0 -- -- 55
2019-10-06 13:00:00 20.4 17 Noroeste 30 Noroeste 0 -- -- 59
2019-10-06 12:00:00 20.8 16 Noroeste 30 Norte 0 -- -- 56
2019-10-06 11:00:00 18.4 5 Norte 11 Norte 0 -- -- 66
2019-10-06 10:00:00 16.1 7 Noroeste 18 Noroeste 0 -- -- 75
2019-10-06 09:00:00 13.9 6 Noroeste 15 Noroeste 0 -- -- 87
2019-10-06 08:00:00 13.2 9 Noroeste 16 Noroeste 0 -- -- 88
2019-10-06 07:00:00 12.7 9 Noroeste 17 Norte 0 -- -- 87
2019-10-06 06:00:00 13.5 5 Noroeste 16 Noroeste 0 -- -- 85
2019-10-06 05:00:00 14.9 9 Noroeste 20 Noroeste 0 -- -- 82
2019-10-06 04:00:00 14.1 12 Noroeste 19 Noroeste 0 -- -- 88
2019-10-06 03:00:00 12.7 4 Oeste 10 Noroeste 0 -- -- 82
2019-10-06 02:00:00 14 5 Noroeste 12 Noroeste 0 -- -- 80
2019-10-06 01:00:00 14.6 8 Noroeste 15 Noroeste 0 -- -- 76
2019-10-06 00:00:00 15.5 10 Noroeste 21 Noroeste 0 -- -- 72
2019-10-05 23:00:00 16.2 9 Noroeste 22 Noroeste 0 -- -- 72
2019-10-05 22:00:00 17.6 12 Noroeste 23 Noroeste 0 -- -- 66
2019-10-05 21:00:00 18.7 8 Noroeste 17 Noroeste 0 -- -- 61
2019-10-05 20:00:00 20.6 7 Norte 23 Norte 0 -- -- 55
2019-10-05 19:00:00 23.1 11 Norte 27 Nordeste 0 -- -- 49
2019-10-05 18:00:00 25.1 14 Norte 24 Norte 0 -- -- 44
2019-10-05 17:00:00 26.4 11 Norte 22 Norte 0 -- -- 40
2019-10-05 16:00:00 26.1 13 Noroeste 26 Noroeste 0 -- -- 39
2019-10-05 15:00:00 25.1 15 Noroeste 27 Noroeste 0 -- -- 38
2019-10-05 14:00:00 23.6 13 Noroeste 24 Noroeste 0 -- -- 45
2019-10-05 13:00:00 21.9 13 Noroeste 26 Noroeste 0 -- -- 52
2019-10-05 12:00:00 20.4 15 Noroeste 29 Noroeste 0 -- -- 58
2019-10-05 11:00:00 18.7 14 Noroeste 24 Noroeste 0 -- -- 63
2019-10-05 10:00:00 17.3 9 Noroeste 16 Norte 0 -- -- 70
2019-10-05 09:00:00 14.9 6 Noroeste 13 Norte 0 -- -- 80
2019-10-05 08:00:00 14.6 8 Noroeste 14 Noroeste 0 -- -- 80
2019-10-05 07:00:00 15.8 4 Norte 9 Norte 0 -- -- 79
2019-10-05 06:00:00 15.9 4 Norte 7 Noroeste 0 -- -- 79
2019-10-05 05:00:00 16.1 2 Norte 6 Norte 0 -- -- 79
2019-10-05 04:00:00 16.3 2 Norte 11 Noroeste 0 -- -- 77
2019-10-05 03:00:00 16.5 6 Noroeste 18 Noroeste 0 -- -- 76
2019-10-05 02:00:00 16.7 9 Noroeste 21 Noroeste 0 -- -- 74
2019-10-05 01:00:00 16.8 11 Norte 22 Noroeste 0 -- -- 74
2019-10-05 00:00:00 16.6 12 Noroeste 21 Norte 0 -- -- 76
2019-10-04 23:00:00 16.6 12 Noroeste 28 Noroeste 0 -- -- 76
2019-10-04 22:00:00 17.3 14 Noroeste 24 Noroeste 0 -- -- 73
2019-10-04 21:00:00 18.4 15 Noroeste 27 Noroeste 0 -- -- 67
2019-10-04 20:00:00 19.9 13 Norte 29 Norte 0 -- -- 64
2019-10-04 19:00:00 22.6 18 Norte 30 Norte 0 -- -- 55
2019-10-04 18:00:00 24.8 14 Norte 26 Norte 0 -- -- 49
2019-10-04 17:00:00 26.5 11 Noroeste 21 Noroeste 0 -- -- 42
2019-10-04 16:00:00 25.6 10 Norte 21 Noroeste 0 -- -- 45
2019-10-04 15:00:00 26.2 14 Noroeste 24 Oeste 0 -- -- 45
2019-10-04 14:00:00 24.8 10 Noroeste 21 Noroeste 0 -- -- 49
2019-10-04 13:00:00 23.6 12 Noroeste 20 Noroeste 0 -- -- 53
2019-10-04 12:00:00 22 9 Noroeste 14 Noroeste 0 -- -- 56
2019-10-04 11:00:00 18.3 6 Norte 12 Norte 0 -- -- 64
2019-10-04 10:00:00 14.7 0 Calma 4 Sudoeste 0 -- -- 82
2019-10-04 09:00:00 10.5 2 Sur 8 Sudoeste 0 -- -- 95
2019-10-04 08:00:00 8.7 0 Calma 6 Sudoeste 0 -- -- 93
2019-10-04 07:00:00 8.9 4 Noroeste 6 Noroeste 0 -- -- 91
2019-10-04 06:00:00 9.2 3 Sudoeste 6 Oeste 0 -- -- 90
2019-10-04 05:00:00 9.6 5 Oeste 6 Sudoeste 0 -- -- 90
2019-10-04 04:00:00 9.8 5 Sudoeste 7 Sudoeste 0 -- -- 88
2019-10-04 03:00:00 10.7 0 Calma 9 Oeste 0 -- -- 82
2019-10-04 02:00:00 11.3 7 Noroeste 9 Noroeste 0 -- -- 79
2019-10-04 01:00:00 12.6 5 Oeste 11 Noroeste 0 -- -- 71
2019-10-04 00:00:00 14 6 Sudoeste 13 Noroeste 0 -- -- 67
2019-10-03 23:00:00 14.4 8 Noroeste 14 Noroeste 0 -- -- 63
2019-10-03 22:00:00 16.1 0 Calma 15 Norte 0 -- -- 57
2019-10-03 21:00:00 18.3 8 Norte 17 Norte 0 -- -- 51
2019-10-03 20:00:00 20.1 8 Nordeste 22 Norte 0 -- -- 43
2019-10-03 19:00:00 23.2 13 Norte 31 Norte 0 -- -- 40
2019-10-03 18:00:00 25 18 Norte 32 Noroeste 0 -- -- 34
2019-10-03 17:00:00 26.3 21 Noroeste 36 Oeste 0 -- -- 32
2019-10-03 16:00:00 25.9 20 Noroeste 32 Noroeste 0 -- -- 35
2019-10-03 15:00:00 24.7 22 Noroeste 36 Noroeste 0 -- -- 37
2019-10-03 14:00:00 23.3 14 Noroeste 26 Noroeste 0 -- -- 42
2019-10-03 13:00:00 20.6 13 Norte 28 Noroeste 0 -- -- 52
2019-10-03 12:00:00 18.3 13 Noroeste 25 Noroeste 0 -- -- 59
2019-10-03 11:00:00 15.9 14 Noroeste 23 Noroeste 0 -- -- 69
2019-10-03 10:00:00 13 12 Noroeste 21 Noroeste 0 -- -- 83
2019-10-03 09:00:00 11 9 Noroeste 20 Noroeste 0 -- -- 92
2019-10-03 08:00:00 10.5 4 Oeste 20 Noroeste 0 -- -- 90
2019-10-03 07:00:00 10.9 8 Noroeste 15 Noroeste 0 -- -- 91
2019-10-03 06:00:00 11.3 8 Noroeste 17 Oeste 0 -- -- 88
2019-10-03 05:00:00 12.5 9 Noroeste 24 Noroeste 0 -- -- 81
2019-10-03 04:00:00 13.2 15 Noroeste 25 Noroeste 0 -- -- 81
2019-10-03 03:00:00 12.6 7 Noroeste 22 Noroeste 0 -- -- 83
2019-10-03 02:00:00 13.4 10 Noroeste 23 Noroeste 0 -- -- 81
2019-10-03 01:00:00 13.9 13 Noroeste 24 Noroeste 0 -- -- 80
2019-10-03 00:00:00 14.2 13 Oeste 21 Noroeste 0 -- -- 78
2019-10-02 23:00:00 14.8 11 Noroeste 21 Noroeste 0 -- -- 78
2019-10-02 22:00:00 15.5 9 Noroeste 30 Norte 0 -- -- 75
2019-10-02 21:00:00 16.3 10 Noroeste 35 Norte 0 -- -- 72
2019-10-02 20:00:00 17.7 21 Norte 37 Norte 0 -- -- 63
2019-10-02 19:00:00 19.4 17 Norte 44 Noroeste 0 -- -- 57
2019-10-02 18:00:00 20.7 23 Noroeste 44 Norte 0 -- -- 50
2019-10-02 17:00:00 21.5 27 Norte 45 Norte 0 -- -- 47
2019-10-02 16:00:00 20.9 22 Noroeste 47 Noroeste 0 -- -- 51
2019-10-02 15:00:00 21.9 28 Noroeste 46 Noroeste 0 -- -- 48
2019-10-02 14:00:00 21.4 28 Noroeste 43 Noroeste 0 -- -- 51
2019-10-02 13:00:00 19.8 27 Noroeste 48 Noroeste 0 -- -- 54
2019-10-02 12:00:00 19.2 22 Noroeste 45 Noroeste 0 -- -- 54
2019-10-02 11:00:00 19.5 24 Noroeste 40 Noroeste 0 -- -- 53
2019-10-02 10:00:00 17.6 11 Norte 19 Norte 0 -- -- 60
2019-10-02 09:00:00 14.4 5 Noroeste 10 Noroeste 0 -- -- 82
2019-10-02 08:00:00 13.1 3 Noroeste 8 Norte 0 -- -- 87
2019-10-02 07:00:00 11.9 4 Noroeste 12 Noroeste 0 -- -- 87
2019-10-02 06:00:00 12.7 4 Noroeste 8 Noroeste 0 -- -- 84
2019-10-02 05:00:00 14.8 3 Norte 12 Noroeste 0 -- -- 78
2019-10-02 04:00:00 17 9 Norte 18 Norte 0 -- -- 74
2019-10-02 03:00:00 17.2 4 Noroeste 9 Noroeste 0 -- -- 76
2019-10-02 02:00:00 17.5 5 Noroeste 16 Norte 0 -- -- 74
2019-10-02 01:00:00 17.4 11 Norte 22 Norte 0 -- -- 75
2019-10-02 00:00:00 16.7 5 Noroeste 15 Noroeste 0 -- -- 75
2019-10-01 23:00:00 18 9 Noroeste 23 Norte 0 -- -- 71
2019-10-01 22:00:00 18.4 12 Norte 21 Norte 0 -- -- 70
2019-10-01 21:00:00 19.1 15 Norte 27 Norte 0 -- -- 67
2019-10-01 20:00:00 20.6 13 Norte 28 Norte 0 -- -- 61
2019-10-01 19:00:00 23.3 9 Nordeste 34 Norte 0 -- -- 53
2019-10-01 18:00:00 26.2 19 Nordeste 35 Norte 0 -- -- 45
2019-10-01 17:00:00 26.5 15 Nordeste 28 Nordeste 0 -- -- 46
2019-10-01 16:00:00 26.1 11 Norte 29 Norte 0 -- -- 48
2019-10-01 15:00:00 26.3 14 Noroeste 23 Noroeste 0 -- -- 42
2019-10-01 14:00:00 26.7 17 Noroeste 28 Norte 0 -- -- 44
2019-10-01 13:00:00 24.7 12 Norte 27 Norte 0 -- -- 51
2019-10-01 12:00:00 22.2 14 Noroeste 25 Noroeste 0 -- -- 57
2019-10-01 11:00:00 19.7 4 Norte 9 Norte 0 -- -- 67
2019-10-01 10:00:00 15.9 4 Norte 11 Noroeste 0 -- -- 83
2019-10-01 09:00:00 11.6 0 Calma 4 Oeste 0 -- -- 96
2019-10-01 08:00:00 10.3 2 Oeste 6 Sudeste 0 -- -- 95
2019-10-01 07:00:00 10.4 0 Calma 6 Noroeste 0 -- -- 94
2019-10-01 06:00:00 10.8 0 Calma 4 Nordeste 0 -- -- 92
2019-10-01 05:00:00 11.7 3 Sudeste 6 Sudeste 0 -- -- 92
2019-10-01 04:00:00 12.5 4 Sudoeste 6 Sudoeste 0 -- -- 92
2019-10-01 03:00:00 13 4 Sur 8 Sudoeste 0 -- -- 90
2019-10-01 02:00:00 13.6 0 Calma 5 Norte 0 -- -- 87
2019-10-01 01:00:00 14.8 2 Nordeste 8 Sudeste 0 -- -- 80
2019-10-01 00:00:00 15.9 6 Sudeste 10 Sur 0 -- -- 79
2019-09-30 23:00:00 16.7 5 Sudoeste 11 Sur 0 -- -- 77
2019-09-30 22:00:00 18 6 Sur 9 Sur 0 -- -- 72
2019-09-30 21:00:00 20.7 8 Sur 10 Sur 0 -- -- 68
2019-09-30 20:00:00 25.1 0 Calma 8 Oeste 0 -- -- 49
2019-09-30 19:00:00 28.5 4 Noroeste 8 Oeste 0 -- -- 42
2019-09-30 18:00:00 28.8 4 Norte 8 Norte 0 -- -- 38
2019-09-30 17:00:00 29.6 0 Calma 12 Este 0 -- -- 37
2019-09-30 16:00:00 28.5 8 Este 14 Este 0 -- -- 40
2019-09-30 15:00:00 27.2 5 Nordeste 12 Este 0 -- -- 43
2019-09-30 14:00:00 25.9 7 Norte 15 Norte 0 -- -- 45
2019-09-30 13:00:00 24.4 6 Norte 13 Noroeste 0 -- -- 50
2019-09-30 12:00:00 22.4 9 Noroeste 17 Norte 0 -- -- 55
2019-09-30 11:00:00 20 8 Noroeste 14 Norte 0 -- -- 58
2019-09-30 10:00:00 16.9 9 Noroeste 13 Noroeste 0 -- -- 67
2019-09-30 09:00:00 13.1 4 Oeste 9 Noroeste 0 -- -- 83
2019-09-30 08:00:00 11.5 5 Oeste 8 Noroeste 0 -- -- 84
2019-09-30 07:00:00 13 4 Oeste 13 Noroeste 0 -- -- 77
2019-09-30 06:00:00 13.2 8 Norte 11 Noroeste 0 -- -- 77
2019-09-30 05:00:00 14.1 5 Nordeste 12 Noroeste 0 -- -- 73
2019-09-30 04:00:00 15.5 9 Noroeste 21 Noroeste 0 -- -- 68
2019-09-30 03:00:00 16.7 13 Oeste 19 Noroeste 0 -- -- 62
2019-09-30 02:00:00 18.3 13 Noroeste 21 Noroeste 0 -- -- 57
2019-09-30 01:00:00 18.5 11 Noroeste 22 Noroeste 0 -- -- 58
2019-09-30 00:00:00 18.6 11 Oeste 22 Oeste 0 -- -- 56
2019-09-29 23:00:00 17.8 10 Noroeste 15 Noroeste 0 -- -- 62
2019-09-29 22:00:00 17.6 8 Norte 18 Norte 0 -- -- 70
2019-09-29 21:00:00 20 7 Sudoeste 9 Sudoeste 0 -- -- 65
2019-09-29 20:00:00 24.8 3 Oeste 4 Oeste 0 -- -- 50
2019-09-29 19:00:00 29.2 2 Sur 5 Norte 0 -- -- 38
2019-09-29 18:00:00 29.1 4 Sur 11 Sur 0 -- -- 35
2019-09-29 17:00:00 29 4 Sudoeste 10 Sur 0 -- -- 41
2019-09-29 16:00:00 27.2 3 Nordeste 14 Nordeste 0 -- -- 45
2019-09-29 15:00:00 26 6 Norte 14 Sudoeste 0 -- -- 45
2019-09-29 14:00:00 24.7 3 Noroeste 12 Nordeste 0 -- -- 58
2019-09-29 13:00:00 23.4 3 Sudeste 17 Sudeste 0 -- -- 60
2019-09-29 12:00:00 21.7 3 Sudeste 11 Este 0 -- -- 68
2019-09-29 11:00:00 18.9 2 Oeste 8 Norte 0 -- -- 74
2019-09-29 10:00:00 15 3 Norte 5 Noroeste 0 -- -- 83
2019-09-29 09:00:00 13.3 2 Sudeste 6 Sur 0 -- -- 93
2019-09-29 08:00:00 12 0 Calma 6 Norte 0 -- -- 96
2019-09-29 07:00:00 10.5 4 Sudoeste 6 Sudoeste 0 -- -- 96
2019-09-29 06:00:00 10.1 5 Sudoeste 6 Sudoeste 0 -- -- 94
2019-09-29 05:00:00 10.3 4 Sudeste 9 Oeste 0 -- -- 92
2019-09-29 04:00:00 11 2 Sur 5 Oeste 0 -- -- 91
2019-09-29 03:00:00 11.7 5 Oeste 8 Oeste 0 -- -- 91
2019-09-29 02:00:00 12.1 0 Calma 5 Sudeste 0 -- -- 87
2019-09-29 01:00:00 12.9 4 Este 7 Sudeste 0 -- -- 87
2019-09-29 00:00:00 13.8 3 Sudeste 7 Sudoeste 0 -- -- 84
2019-09-28 23:00:00 14.7 4 Sudoeste 7 Oeste 0 -- -- 82
2019-09-28 22:00:00 16.3 0 Calma 6 Oeste 0 -- -- 75
2019-09-28 21:00:00 19.1 4 Oeste 6 Sudoeste 0 -- -- 64
2019-09-28 20:00:00 23.3 0 Calma 11 Sudeste 0 -- -- 49
2019-09-28 19:00:00 26.3 7 Sur 16 Sudeste 0 -- -- 35
2019-09-28 18:00:00 27.4 10 Sudeste 27 Sudeste 0 -- -- 35
2019-09-28 17:00:00 27.5 9 Sur 20 Sudeste 0 -- -- 40
2019-09-28 16:00:00 27.2 8 Este 19 Sudeste 0 -- -- 42
2019-09-28 15:00:00 25.7 10 Este 20 Este 0 -- -- 47
2019-09-28 14:00:00 24.2 8 Este 18 Este 0 -- -- 51
2019-09-28 13:00:00 22.7 5 Este 13 Este 0 -- -- 54
2019-09-28 12:00:00 21.4 4 Nordeste 13 Norte 0 -- -- 60
2019-09-28 11:00:00 19.7 6 Norte 15 Norte 0 -- -- 65
2019-09-28 10:00:00 17.8 6 Noroeste 12 Noroeste 0 -- -- 74
2019-09-28 09:00:00 13.4 4 Oeste 8 Oeste 0 -- -- 95
2019-09-28 08:00:00 12.1 3 Oeste 11 Noroeste 0 -- -- 92
2019-09-28 07:00:00 12.7 8 Oeste 13 Oeste 0 -- -- 91
2019-09-28 06:00:00 13.1 9 Oeste 11 Oeste 0 -- -- 91
2019-09-28 05:00:00 13.9 6 Noroeste 13 Noroeste 0 -- -- 90
2019-09-28 04:00:00 14.1 5 Noroeste 10 Noroeste 0 -- -- 88
2019-09-28 03:00:00 14.6 6 Noroeste 12 Noroeste 0 -- -- 84
2019-09-28 02:00:00 16 6 Noroeste 19 Noroeste 0 -- -- 80
2019-09-28 01:00:00 17.3 11 Noroeste 31 Noroeste 0 -- -- 77
2019-09-28 00:00:00 18 14 Noroeste 27 Noroeste 0 -- -- 75
2019-09-27 23:00:00 18.9 10 Noroeste 22 Noroeste 0 -- -- 70
2019-09-27 22:00:00 20 12 Noroeste 22 Noroeste 0 -- -- 64
2019-09-27 21:00:00 19 4 Norte 10 Oeste 0 -- -- 53
2019-09-27 20:00:00 23.1 6 Noroeste 15 Noroeste 0 -- -- 37
2019-09-27 19:00:00 26.7 10 Noroeste 18 Noroeste 0 -- -- 29
2019-09-27 18:00:00 27.9 6 Noroeste 14 Noroeste 0 -- -- 31
2019-09-27 17:00:00 28.2 5 Norte 15 Noroeste 0 -- -- 28
2019-09-27 16:00:00 27.9 8 Noroeste 22 Noroeste 0 -- -- 28
2019-09-27 15:00:00 25.8 9 Noroeste 24 Noroeste 0 -- -- 36
2019-09-27 14:00:00 25.5 10 Noroeste 18 Noroeste 0 -- -- 43
2019-09-27 13:00:00 23.7 8 Noroeste 29 Noroeste 0 -- -- 47
2019-09-27 12:00:00 21.7 15 Norte 26 Norte 0 -- -- 54
2019-09-27 11:00:00 19 14 Noroeste 22 Norte 0 -- -- 65
2019-09-27 10:00:00 16.4 8 Norte 17 Norte 0 -- -- 76
2019-09-27 09:00:00 13.4 5 Norte 13 Noroeste 0 -- -- 90
2019-09-27 08:00:00 12.2 9 Noroeste 19 Noroeste 0 -- -- 96
2019-09-27 07:00:00 9.8 3 Noroeste 5 Noroeste 0 -- -- 94
2019-09-27 06:00:00 10.2 0 Calma 7 Sudoeste 0 -- -- 91
2019-09-27 05:00:00 11 3 Sudoeste 5 Sudoeste 0 -- -- 90
2019-09-27 04:00:00 11.6 2 Sur 7 Sudoeste 0 -- -- 89
2019-09-27 03:00:00 12.4 4 Oeste 6 Oeste 0 -- -- 88
2019-09-27 02:00:00 13.1 3 Sur 5 Sudoeste 0 -- -- 86
2019-09-27 01:00:00 14 0 Calma 5 Norte 0 -- -- 83
2019-09-27 00:00:00 14.9 2 Sur 6 Sur 0 -- -- 78
2019-09-26 23:00:00 16.2 4 Sudoeste 5 Sur 0 -- -- 76
2019-09-26 22:00:00 17.8 6 Sur 7 Sur 0 -- -- 70
2019-09-26 21:00:00 20.6 5 Sudoeste 7 Sudoeste 0 -- -- 60
2019-09-26 20:00:00 24.7 4 Noroeste 13 Noroeste 0 -- -- 48
2019-09-26 19:00:00 26.7 7 Norte 13 Noroeste 0 -- -- 40
2019-09-26 18:00:00 27.9 5 Norte 17 Nordeste 0 -- -- 37
2019-09-26 17:00:00 28.2 12 Nordeste 21 Nordeste 0 -- -- 35
2019-09-26 16:00:00 28.7 8 Sudeste 25 Sudeste 0 -- -- 38
2019-09-26 15:00:00 27.3 13 Este 26 Sudeste 0 -- -- 39
2019-09-26 14:00:00 25.1 8 Este 17 Sudeste 0 -- -- 44
2019-09-26 13:00:00 23.4 4 Este 10 Este 0 -- -- 50
2019-09-26 12:00:00 21 3 Noroeste 8 Nordeste 0 -- -- 59
2019-09-26 11:00:00 18.6 5 Norte 10 Norte 0 -- -- 68
2019-09-26 10:00:00 16 4 Norte 8 Noroeste 0 -- -- 80
2019-09-26 09:00:00 10.9 0 Calma 4 Oeste 0 -- -- 97
2019-09-26 08:00:00 9.4 3 Sudoeste 4 Sudoeste 0 -- -- 94
2019-09-26 07:00:00 9.7 0 Calma 9 Sur 0 -- -- 94
2019-09-26 06:00:00 9.8 3 Sudoeste 5 Sudoeste 0 -- -- 93
2019-09-26 05:00:00 10 0 Calma 4 Sudoeste 0 -- -- 91
2019-09-26 04:00:00 10.5 2 Sudoeste 3 Sudoeste 0 -- -- 90
2019-09-26 03:00:00 11.1 3 Sudoeste 6 Sur 0 -- -- 88
2019-09-26 02:00:00 11.8 3 Sur 5 Sur 0 -- -- 85
2019-09-26 01:00:00 12.8 2 Sudoeste 4 Sur 0 -- -- 83
2019-09-26 00:00:00 13.9 4 Sur 8 Sur 0 -- -- 81
2019-09-25 23:00:00 15.5 2 Sudoeste 9 Sudoeste 0 -- -- 72
2019-09-25 22:00:00 16.5 7 Sudoeste 9 Sudoeste 0 -- -- 68
2019-09-25 21:00:00 17.9 3 Norte 10 Nordeste 0 -- -- 64
2019-09-25 20:00:00 20.2 8 Nordeste 19 Noroeste 0 -- -- 56
2019-09-25 19:00:00 22.5 12 Noroeste 27 Noroeste 0 -- -- 46
2019-09-25 18:00:00 22.5 15 Noroeste 23 Norte 0 -- -- 44
2019-09-25 17:00:00 23.2 14 Norte 26 Noroeste 0 -- -- 42
2019-09-25 16:00:00 23.7 12 Norte 22 Norte 0 -- -- 41
2019-09-25 15:00:00 23.4 12 Norte 29 Norte 0 -- -- 42
2019-09-25 14:00:00 22.7 10 Norte 22 Noroeste 0 -- -- 46
2019-09-25 13:00:00 21.3 13 Norte 27 Norte 0 -- -- 49
2019-09-25 12:00:00 19.8 13 Noroeste 21 Norte 0 -- -- 60
2019-09-25 11:00:00 18.6 8 Norte 18 Noroeste 0 -- -- 69
2019-09-25 10:00:00 16.6 6 Noroeste 12 Noroeste 0 -- -- 79
2019-09-25 09:00:00 13.1 2 Sudoeste 6 Sudeste 0 -- -- 94
2019-09-25 08:00:00 12 3 Sur 8 Noroeste 0 -- -- 90
2019-09-25 07:00:00 12.9 2 Norte 9 Noroeste 0 -- -- 88
2019-09-25 06:00:00 13.7 4 Noroeste 6 Noroeste 0 -- -- 83
2019-09-25 05:00:00 14.9 4 Norte 10 Norte 0 -- -- 82
2019-09-25 04:00:00 15 6 Nordeste 23 Norte 0 -- -- 82
2019-09-25 03:00:00 15.5 9 Norte 18 Noroeste 0 -- -- 81
2019-09-25 02:00:00 16.3 10 Norte 22 Norte 0 -- -- 77
2019-09-25 01:00:00 16.8 13 Noroeste 21 Noroeste 0 -- -- 73
2019-09-25 00:00:00 16.9 10 Noroeste 17 Noroeste 0 -- -- 72
2019-09-24 23:00:00 18.5 9 Noroeste 19 Noroeste 0 -- -- 70
2019-09-24 22:00:00 20.2 11 Norte 20 Noroeste 0 -- -- 70
2019-09-24 21:00:00 20.8 7 Sudoeste 14 Oeste 0 -- -- 63
2019-09-24 20:00:00 24.3 4 Sur 6 Sur 0 -- -- 58
2019-09-24 19:00:00 25.6 0 Calma 13 Noroeste 0 -- -- 58
2019-09-24 18:00:00 25.6 10 Noroeste 16 Norte 0 -- -- 52
2019-09-24 17:00:00 26.2 8 Norte 18 Noroeste 0 -- -- 47
2019-09-24 16:00:00 27.4 9 Norte 16 Norte 0 -- -- 40
2019-09-24 15:00:00 26.6 7 Nordeste 12 Noroeste 0 -- -- 42
2019-09-24 14:00:00 25 5 Nordeste 18 Norte 0 -- -- 44
2019-09-24 13:00:00 23.9 8 Norte 15 Norte 0 -- -- 47
2019-09-24 12:00:00 22.2 6 Norte 14 Noroeste 0 -- -- 53
2019-09-24 11:00:00 19.3 9 Norte 14 Norte 0 -- -- 62
2019-09-24 10:00:00 16.8 6 Norte 12 Noroeste 0 -- -- 74
2019-09-24 09:00:00 12.1 5 Noroeste 13 Noroeste 0 -- -- 97
2019-09-24 08:00:00 8.9 5 Noroeste 10 Noroeste 0 -- -- 96
2019-09-24 07:00:00 9 3 Sudoeste 6 Norte 0 -- -- 94
2019-09-24 06:00:00 9.8 4 Norte 9 Norte 0 -- -- 94
2019-09-24 05:00:00 9.8 4 Sudoeste 6 Sur 0 -- -- 91
2019-09-24 04:00:00 10.6 3 Sudoeste 5 Sudoeste 0 -- -- 89
2019-09-24 03:00:00 11.5 3 Sudeste 8 Sudoeste 0 -- -- 92
2019-09-24 02:00:00 11.5 3 Oeste 7 Sudoeste 0 -- -- 86
2019-09-24 01:00:00 12.6 0 Calma 6 Sur 0 -- -- 85
2019-09-24 00:00:00 13.5 4 Sur 6 Sudoeste 0 -- -- 82
2019-09-23 23:00:00 14.5 3 Sudoeste 6 Sudoeste 0 -- -- 81
2019-09-23 22:00:00 16.1 6 Sudoeste 8 Sudoeste 0 -- -- 72
2019-09-23 21:00:00 18.8 0 Calma 10 Nordeste 0 -- -- 63
2019-09-23 20:00:00 21.3 8 Nordeste 12 Este 0 -- -- 54
2019-09-23 19:00:00 23 6 Este 16 Este 0 -- -- 50
2019-09-23 18:00:00 23.8 10 Nordeste 15 Este 0 -- -- 45
2019-09-23 17:00:00 24.1 6 Nordeste 13 Este 0 -- -- 42
2019-09-23 16:00:00 23.8 4 Norte 14 Este 0 -- -- 42
2019-09-23 15:00:00 23.2 8 Este 18 Este 0 -- -- 46
2019-09-23 14:00:00 22.5 7 Este 17 Este 0 -- -- 52
2019-09-23 13:00:00 21.3 4 Sudeste 14 Sudeste 0 -- -- 55
2019-09-23 12:00:00 19.3 5 Este 10 Nordeste 0 -- -- 61
2019-09-23 11:00:00 16.8 4 Norte 8 Norte 0 -- -- 73
2019-09-23 10:00:00 13.5 0 Calma 6 Sudoeste 0 -- -- 88
2019-09-23 09:00:00 8.8 3 Sudoeste 5 Sudoeste 0 -- -- 96
2019-09-23 08:00:00 8.5 0 Calma 5 Sur 0 -- -- 94
2019-09-23 07:00:00 9.1 3 Sudoeste 8 Sur 0 -- -- 92
2019-09-23 06:00:00 9.8 2 Oeste 4 Noroeste 0 -- -- 92
2019-09-23 05:00:00 10.4 0 Calma 12 Noroeste 0 -- -- 89
2019-09-23 04:00:00 11.4 5 Oeste 10 Sudoeste 0 -- -- 88
2019-09-23 03:00:00 12.3 2 Este 9 Sudeste 0 -- -- 89
2019-09-23 02:00:00 14 5 Noroeste 15 Noroeste 0 -- -- 83
2019-09-23 01:00:00 13.9 10 Noroeste 15 Noroeste 0 -- -- 85
2019-09-23 00:00:00 15.3 8 Noroeste 13 Oeste 0 -- -- 79
2019-09-22 23:00:00 16.2 8 Noroeste 14 Noroeste 0 -- -- 75
2019-09-22 22:00:00 16 6 Norte 15 Norte 0 -- -- 63
2019-09-22 21:00:00 18.2 3 Norte 14 Noroeste 0 -- -- 58
2019-09-22 20:00:00 21 10 Noroeste 27 Noroeste 0 -- -- 45
2019-09-22 19:00:00 22.1 14 Norte 26 Norte 0 -- -- 47
2019-09-22 18:00:00 22.3 17 Norte 29 Norte 0 -- -- 46
2019-09-22 17:00:00 24.4 15 Noroeste 30 Noroeste 0 -- -- 42
2019-09-22 16:00:00 23.3 13 Norte 22 Norte 0 -- -- 48
2019-09-22 15:00:00 21.8 13 Norte 23 Noroeste 0 -- -- 54
2019-09-22 14:00:00 22.4 10 Norte 25 Norte 0 -- -- 55
2019-09-22 13:00:00 22.4 13 Norte 22 Norte 0 -- -- 57
2019-09-22 12:00:00 21.2 10 Norte 19 Norte 0 -- -- 60
2019-09-22 11:00:00 20.4 10 Norte 20 Noroeste 0 -- -- 64
2019-09-22 10:00:00 18.7 8 Norte 25 Noroeste 0 -- -- 78
2019-09-22 09:00:00 17.6 12 Norte 34 Noroeste 0 -- -- 82
2019-09-22 08:00:00 19.2 9 Sudeste 19 Sudeste 0 -- -- 83
2019-09-22 07:00:00 19.7 9 Sudeste 18 Sudeste 0 -- -- 85
2019-09-22 06:00:00 20 11 Sudeste 24 Sudeste 0 -- -- 83
2019-09-22 05:00:00 20.2 13 Sudeste 26 Sudeste 0 -- -- 79
2019-09-22 04:00:00 19.8 22 Sudeste 31 Sudeste 0 -- -- 86
2019-09-22 03:00:00 20.1 17 Sudeste 27 Sudeste 0 -- -- 81
2019-09-22 02:00:00 20.5 13 Sudeste 26 Sudeste 0 -- -- 75
2019-09-22 01:00:00 20.7 16 Sudeste 23 Sudeste 0 -- -- 72
2019-09-22 00:00:00 18.9 8 Sur 14 Sur 0 -- -- 81
2019-09-21 23:00:00 20.3 10 Sudeste 15 Sudeste 0 -- -- 72
2019-09-21 22:00:00 21.3 9 Sudeste 20 Sur 0 -- -- 69
2019-09-21 21:00:00 21.4 10 Sur 23 Sur 0 -- -- 66
2019-09-21 20:00:00 23.1 17 Sur 30 Sudoeste 0 -- -- 56
2019-09-21 19:00:00 24 23 Sudoeste 32 Sudoeste 0 -- -- 53
2019-09-21 18:00:00 25.3 17 Sudoeste 33 Sudoeste 0 -- -- 50
2019-09-21 17:00:00 26 18 Sur 28 Sudoeste 0 -- -- 46
2019-09-21 16:00:00 25.3 13 Sudeste 30 Este 0 -- -- 60
2019-09-21 15:00:00 25.4 18 Sudeste 33 Sudeste 0 -- -- 62
2019-09-21 14:00:00 24.5 19 Sudeste 33 Sudeste 0 -- -- 65
2019-09-21 13:00:00 22.8 20 Sudeste 34 Este 0 -- -- 73
2019-09-21 12:00:00 22.8 23 Sudeste 36 Sudeste 0 -- -- 73
2019-09-21 11:00:00 21.1 26 Sudeste 36 Sudeste 0 -- -- 80
2019-09-21 10:00:00 19.8 17 Sudeste 31 Sudeste 0 -- -- 88
2019-09-21 09:00:00 18.1 10 Sudeste 20 Sudeste 0 -- -- 95
2019-09-21 08:00:00 17.6 12 Sudeste 19 Sudeste 0 -- -- 95
2019-09-21 07:00:00 17.2 9 Sudeste 18 Sudeste 0 -- -- 95
2019-09-21 06:00:00 17.2 11 Sudeste 25 Sudeste 0.2 -- -- 95
2019-09-21 05:00:00 17.5 18 Sudeste 29 Sudeste 1.2 -- -- 94
2019-09-21 04:00:00 18.1 14 Sudeste 23 Sudeste 0 -- -- 89
2019-09-21 03:00:00 18 4 Sudeste 16 Sudeste 0 -- -- 89
2019-09-21 02:00:00 18.2 10 Sudeste 18 Este 0 -- -- 88
2019-09-21 01:00:00 18.4 0 Calma 20 Sudeste 0 -- -- 87
2019-09-21 00:00:00 18.6 8 Sur 40 Sudeste 0 -- -- 80
2019-09-20 23:00:00 18.6 28 Sudeste 42 Sudeste 0 -- -- 87
2019-09-20 22:00:00 18.6 22 Sudeste 46 Sudeste 1 -- -- 86
2019-09-20 21:00:00 18.4 36 Sudeste 69 Sudeste 0.8 -- -- 81
2019-09-20 20:00:00 22.7 28 Sudeste 52 Sudeste 0 -- -- 56
2019-09-20 19:00:00 25.9 27 Sudeste 43 Sudeste 0 -- -- 52
2019-09-20 18:00:00 27.4 22 Sudeste 41 Sudeste 0 -- -- 52
2019-09-20 17:00:00 27.1 23 Sudeste 38 Sudeste 0 -- -- 49
2019-09-20 16:00:00 27.2 24 Sudeste 40 Sudeste 0 -- -- 46
2019-09-20 15:00:00 28.1 22 Sudeste 37 Este 0 -- -- 50
2019-09-20 14:00:00 26.4 22 Sudeste 34 Sudeste 0 -- -- 58
2019-09-20 13:00:00 25.6 19 Sudeste 37 Sudeste 0 -- -- 62
2019-09-20 12:00:00 23.7 17 Sudeste 30 Este 0 -- -- 66
2019-09-20 11:00:00 20.9 18 Sudeste 27 Sudeste 0 -- -- 79
2019-09-20 10:00:00 18.4 5 Este 12 Sudeste 0 -- -- 90
2019-09-20 09:00:00 15.4 5 Sur 10 Sur 0 -- -- 98
2019-09-20 08:00:00 13.5 9 Sur 10 Sudoeste 0 -- -- 96
2019-09-20 07:00:00 13.2 5 Sur 6 Sur 0 -- -- 94
2019-09-20 06:00:00 14.1 5 Sudeste 6 Sur 0 -- -- 94
2019-09-20 05:00:00 14.6 4 Sudeste 8 Sudeste 0 -- -- 93
2019-09-20 04:00:00 15.3 6 Sudeste 8 Sudeste 0 -- -- 92
2019-09-20 03:00:00 16.3 6 Sur 15 Sudeste 0 -- -- 91
2019-09-20 02:00:00 15.5 6 Sur 12 Sudeste 0 -- -- 95
2019-09-20 01:00:00 15.8 3 Sudeste 6 Este 0 -- -- 92
2019-09-20 00:00:00 16.6 4 Oeste 8 Sudoeste 0 -- -- 88
2019-09-19 23:00:00 17.8 5 Sudoeste 6 Sudoeste 0 -- -- 86
2019-09-19 22:00:00 19.4 0 Calma 9 Sudoeste 0 -- -- 81
2019-09-19 21:00:00 21.7 0 Calma 9 Noroeste 0 -- -- 75
2019-09-19 20:00:00 23.4 7 Noroeste 10 Noroeste 0 -- -- 67
2019-09-19 19:00:00 24.1 4 Noroeste 10 Noroeste 0 -- -- 64
2019-09-19 18:00:00 25.1 9 Oeste 12 Noroeste 0 -- -- 58
2019-09-19 17:00:00 26.3 0 Calma 10 Sudeste 0 -- -- 56
2019-09-19 16:00:00 26.9 6 Sudeste 19 Este 0 -- -- 49
2019-09-19 15:00:00 26.2 4 Sudeste 14 Este 0 -- -- 51
2019-09-19 14:00:00 24.8 6 Este 14 Este 0 -- -- 58
2019-09-19 13:00:00 23.4 3 Nordeste 15 Norte 0 -- -- 62
2019-09-19 12:00:00 21.6 10 Norte 23 Norte 0 -- -- 70
2019-09-19 11:00:00 18.6 10 Norte 18 Noroeste 0 -- -- 82
2019-09-19 10:00:00 17.7 5 Noroeste 15 Noroeste 0 -- -- 89
2019-09-19 09:00:00 15.5 7 Noroeste 14 Oeste 0 -- -- 98
2019-09-19 08:00:00 13.7 4 Sudoeste 6 Sudoeste 0 -- -- 94
2019-09-19 07:00:00 14.8 2 Sudoeste 8 Oeste 0 -- -- 94
2019-09-19 06:00:00 15.9 6 Noroeste 13 Noroeste 0 -- -- 95
2019-09-19 05:00:00 16.1 7 Noroeste 13 Noroeste 0 -- -- 95
2019-09-19 04:00:00 15.8 5 Noroeste 10 Noroeste 0 -- -- 93
2019-09-19 03:00:00 16.3 7 Noroeste 12 Noroeste 0 -- -- 93
2019-09-19 02:00:00 17 5 Noroeste 8 Noroeste 0 -- -- 89
2019-09-19 01:00:00 18.3 4 Noroeste 16 Noroeste 0 -- -- 86
2019-09-19 00:00:00 18.4 8 Noroeste 14 Noroeste 0 -- -- 88
2019-09-18 23:00:00 18.4 3 Noroeste 9 Noroeste 0 -- -- 83
2019-09-18 22:00:00 19.7 4 Noroeste 15 Noroeste 0 -- -- 78
2019-09-18 21:00:00 20.5 7 Noroeste 26 Noroeste 0 -- -- 74
2019-09-18 20:00:00 21.9 14 Noroeste 27 Noroeste 0 -- -- 69
2019-09-18 19:00:00 22.7 11 Oeste 22 Oeste 0 -- -- 66
2019-09-18 18:00:00 21.3 15 Sur 33 Sudoeste 0.8 -- -- 71
2019-09-18 17:00:00 27.6 13 Norte 18 Norte 0 -- -- 48
2019-09-18 16:00:00 27.6 6 Norte 15 Este 0 -- -- 48
2019-09-18 15:00:00 -- 3 Este 7 Este 0 -- -- --
2019-09-18 14:00:00 26.1 5 Sudeste 13 Sudoeste 0 -- -- 54
2019-09-18 13:00:00 25.3 4 Sudoeste 19 Noroeste 0 -- -- 57
2019-09-18 12:00:00 24.1 10 Noroeste 26 Noroeste 0 -- -- 61
2019-09-18 11:00:00 22.2 16 Noroeste 24 Noroeste 0 -- -- 66
2019-09-18 10:00:00 21.4 7 Norte 12 Norte 0 -- -- 70
2019-09-18 09:00:00 18.6 7 Oeste 13 Noroeste 0 -- -- 81
2019-09-18 08:00:00 17.1 6 Noroeste 14 Noroeste 0 -- -- 85
2019-09-18 07:00:00 17.6 9 Noroeste 16 Norte 0 -- -- 83
2019-09-18 06:00:00 18.4 10 Norte 29 Noroeste 0 -- -- 81
2019-09-18 05:00:00 19.1 21 Noroeste 34 Noroeste 0 -- -- 79
2019-09-18 04:00:00 19.9 19 Norte 32 Norte 0 -- -- 73
2019-09-18 03:00:00 21.6 7 Norte 32 Oeste 0 -- -- 58
2019-09-18 02:00:00 22.5 11 Oeste 48 Sudoeste 0 -- -- 54
2019-09-18 01:00:00 22 29 Sudoeste 42 Sudoeste 0 -- -- 59
2019-09-18 00:00:00 21.9 5 Noroeste 18 Noroeste 0 -- -- 75
2019-09-17 23:00:00 21.5 10 Noroeste 16 Noroeste 0 -- -- 79
2019-09-17 22:00:00 21.1 6 Noroeste 14 Noroeste 0 -- -- 74
2019-09-17 21:00:00 22 5 Oeste 9 Oeste 0 -- -- 70